Time;durP1;ratioP1;P1;durP2;ratioP2;P2;SDS_P1;SDS_P2;PMS_P1;PMS_P2;Temp;Humidity;BMP_temperature;BMP_pressure;BME280_temperature;BME280_humidity;BME280_pressure;Samples;Min_cycle;Max_cycle;Signal;HPM_P1;HPM_P2
2022/03/29 00:01:22;;;;;;;18.27;11.40;;;;;;;15.93;33.81;97241.28;5119792;27;20425;-72
2022/03/29 00:03:48;;;;;;;19.77;10.93;;;;;;;15.86;34.13;97236.91;5118689;27;20206;-72
2022/03/29 00:06:14;;;;;;;21.53;11.23;;;;;;;15.83;34.29;97232.78;5124919;27;20176;-71
2022/03/29 00:08:39;;;;;;;22.53;11.13;;;;;;;15.78;34.41;97228.03;5120884;27;20180;-71
2022/03/29 00:11:04;;;;;;;15.00;10.50;;;;;;;15.81;34.37;97229.50;5113530;27;20244;-72
2022/03/29 00:13:30;;;;;;;16.40;10.93;;;;;;;15.81;34.55;97222.41;5111504;28;20248;-71
2022/03/29 00:15:55;;;;;;;15.87;11.27;;;;;;;15.81;34.56;97222.41;5118390;27;20627;-71
2022/03/29 00:18:21;;;;;;;16.90;11.13;;;;;;;15.74;34.61;97218.03;5124058;27;20203;-72
2022/03/29 00:20:46;;;;;;;15.70;10.73;;;;;;;15.67;34.51;97215.31;5131361;27;20656;-72
2022/03/29 00:23:12;;;;;;;16.47;10.50;;;;;;;15.67;34.79;97212.66;5124329;27;20250;-73
2022/03/29 00:25:37;;;;;;;15.70;10.57;;;;;;;15.54;34.58;97215.97;5123294;27;20177;-72
2022/03/29 00:28:03;;;;;;;13.83;10.60;;;;;;;15.52;34.81;97207.41;5097275;28;20184;-71
2022/03/29 00:30:28;;;;;;;18.80;10.53;;;;;;;15.56;35.06;97186.72;5123046;27;20180;-72
2022/03/29 00:32:55;;;;;;;21.93;11.20;;;;;;;15.59;35.16;97196.94;5128521;27;20212;-71
2022/03/29 00:35:21;;;;;;;17.73;10.73;;;;;;;15.51;35.38;97189.94;5123793;27;20243;-72
2022/03/29 00:37:47;;;;;;;31.87;11.37;;;;;;;15.49;35.35;97192.75;5124503;27;20494;-71
2022/03/29 00:40:13;;;;;;;15.10;11.03;;;;;;;15.43;35.45;97182.13;5123889;27;20217;-73
2022/03/29 00:42:39;;;;;;;19.20;11.10;;;;;;;15.42;35.44;97196.31;5122921;27;20529;-72
2022/03/29 00:45:06;;;;;;;19.13;10.30;;;;;;;15.39;35.42;97197.47;5130526;27;20173;-72
2022/03/29 00:47:31;;;;;;;18.80;12.03;;;;;;;15.37;35.65;97183.66;5130719;27;20960;-72
2022/03/29 00:49:57;;;;;;;17.37;10.70;;;;;;;15.33;35.92;97190.31;5118299;27;20419;-71
2022/03/29 00:52:23;;;;;;;15.20;9.93;;;;;;;15.35;35.87;97180.38;5120874;28;20184;-72
2022/03/29 00:54:48;;;;;;;17.67;10.87;;;;;;;15.37;35.64;97178.38;5130646;27;20196;-71
2022/03/29 00:57:14;;;;;;;23.53;11.80;;;;;;;15.36;35.54;97177.56;5120029;28;20806;-72
2022/03/29 00:59:42;;;;;;;15.00;10.60;;;;;;;15.35;35.84;97175.09;5126710;28;21006;-72
2022/03/29 01:02:07;;;;;;;22.43;11.03;;;;;;;15.37;35.64;97167.81;5120108;28;20199;-71
2022/03/29 01:04:33;;;;;;;20.37;11.50;;;;;;;15.32;35.61;97170.97;5118743;27;20816;-73
2022/03/29 01:06:59;;;;;;;17.60;11.17;;;;;;;15.27;35.71;97172.53;5130283;27;20176;-72
2022/03/29 01:09:25;;;;;;;16.60;11.00;;;;;;;15.24;35.98;97157.09;5117305;27;20583;-72
2022/03/29 01:11:51;;;;;;;15.63;10.10;;;;;;;15.26;36.09;97150.63;5123872;27;20206;-71
2022/03/29 01:14:16;;;;;;;21.07;11.20;;;;;;;15.26;35.99;97157.69;5124424;27;20446;-71
2022/03/29 01:19:26;;;;;;;16.80;9.90;;;;;;;15.26;35.88;97144.50;5117036;27;20177;-72
2022/03/29 01:21:56;;;;;;;16.50;10.67;;;;;;;15.22;36.14;97145.88;5127331;27;20555;-71
2022/03/29 01:24:22;;;;;;;15.30;10.53;;;;;;;15.20;36.05;97136.34;5125789;27;20208;-72
2022/03/29 01:26:49;;;;;;;18.67;10.00;;;;;;;15.22;35.37;97138.78;5123922;27;20442;-71
2022/03/29 01:29:14;;;;;;;25.40;11.47;;;;;;;15.25;35.27;97132.34;5130327;27;20187;-71
2022/03/29 01:31:40;;;;;;;17.13;10.70;;;;;;;15.23;35.74;97135.13;5117084;27;20410;-70
2022/03/29 01:34:06;;;;;;;18.40;10.20;;;;;;;15.24;35.59;97126.22;5133876;27;20844;-70
2022/03/29 01:36:32;;;;;;;15.47;10.70;;;;;;;15.27;35.47;97125.03;5132073;27;20283;-71
2022/03/29 01:38:59;;;;;;;16.47;10.70;;;;;;;15.28;35.51;97116.09;5123054;27;20283;-71
2022/03/29 01:41:26;;;;;;;19.03;11.00;;;;;;;15.29;35.62;97112.47;5124350;27;20427;-71
2022/03/29 01:43:52;;;;;;;16.53;10.50;;;;;;;15.24;35.46;97118.28;5127059;27;20532;-71
2022/03/29 01:46:18;;;;;;;28.10;10.60;;;;;;;15.23;35.64;97102.66;5125187;27;20517;-70
2022/03/29 01:48:43;;;;;;;14.73;9.73;;;;;;;15.19;35.70;97100.38;5126451;27;20269;-72
2022/03/29 01:51:10;;;;;;;16.13;10.43;;;;;;;15.19;35.80;97097.72;5124811;27;20181;-72
2022/03/29 01:53:36;;;;;;;16.13;10.60;;;;;;;15.16;35.72;97097.28;5124035;27;21742;-73
2022/03/29 01:56:02;;;;;;;17.00;10.47;;;;;;;15.12;35.66;97093.38;5120870;27;20828;-73
2022/03/29 01:58:29;;;;;;;15.50;10.30;;;;;;;15.12;35.15;97091.53;5124300;27;20446;-72
2022/03/29 02:00:55;;;;;;;18.13;11.40;;;;;;;15.07;35.18;97085.19;5110226;27;20185;-72
2022/03/29 02:03:21;;;;;;;23.20;10.40;;;;;;;15.09;35.15;97091.94;5124096;27;20443;-73
2022/03/29 02:05:47;;;;;;;17.60;9.70;;;;;;;15.07;35.75;97083.38;5127532;27;20675;-72
2022/03/29 02:08:12;;;;;;;15.83;10.17;;;;;;;15.04;36.13;97087.19;5126648;27;20918;-73
2022/03/29 02:10:38;;;;;;;18.90;10.43;;;;;;;14.99;35.98;97080.84;5117507;27;20188;-71
2022/03/29 02:13:04;;;;;;;15.50;10.40;;;;;;;14.98;35.56;97077.38;5127990;27;20291;-72
2022/03/29 02:15:29;;;;;;;21.10;10.20;;;;;;;14.96;35.57;97075.91;5127555;27;20662;-73
2022/03/29 02:17:55;;;;;;;14.87;10.13;;;;;;;15.02;35.86;97069.91;5142261;27;20188;-72
2022/03/29 02:20:23;;;;;;;16.57;10.70;;;;;;;15.02;35.66;97072.53;5117286;27;20711;-72
2022/03/29 02:22:49;;;;;;;13.20;10.43;;;;;;;15.01;35.81;97069.09;5130134;27;20177;-71
2022/03/29 02:25:15;;;;;;;25.47;10.60;;;;;;;14.96;35.81;97062.72;5122756;27;20798;-71
2022/03/29 02:27:42;;;;;;;17.00;9.47;;;;;;;14.95;35.80;97059.25;5129031;27;20189;-71
2022/03/29 02:30:11;;;;;;;17.17;10.33;;;;;;;15.02;35.71;97054.91;5125994;27;20192;-70
2022/03/29 02:32:36;;;;;;;15.93;11.00;;;;;;;15.03;35.63;97056.53;5122928;27;20430;-72
2022/03/29 02:35:02;;;;;;;13.90;9.83;;;;;;;15.01;35.58;97047.97;5120100;27;20413;-71
2022/03/29 02:37:28;;;;;;;17.37;11.07;;;;;;;15.00;35.11;97051.63;5123291;27;20188;-71
2022/03/29 02:39:53;;;;;;;17.97;11.07;;;;;;;14.98;35.18;97052.81;5122087;27;20185;-71
2022/03/29 02:42:19;;;;;;;17.23;10.07;;;;;;;14.94;34.80;97046.25;5122774;27;20562;-72
2022/03/29 02:44:44;;;;;;;17.20;10.60;;;;;;;14.95;34.81;97048.69;5121992;27;20276;-71
2022/03/29 02:47:09;;;;;;;18.20;10.60;;;;;;;14.92;34.90;97043.81;5121956;27;20177;-71
2022/03/29 02:49:36;;;;;;;18.80;10.50;;;;;;;14.92;35.47;97040.34;5132831;27;21582;-71
2022/03/29 02:52:02;;;;;;;18.83;10.33;;;;;;;14.89;34.94;97041.53;5125651;27;20187;-71
2022/03/29 02:54:28;;;;;;;21.50;9.90;;;;;;;14.88;34.61;97045.16;5123648;27;21015;-71
2022/03/29 02:56:54;;;;;;;23.43;10.77;;;;;;;14.83;34.13;97040.44;5118702;27;20450;-71
2022/03/29 02:59:19;;;;;;;16.37;10.37;;;;;;;14.90;34.29;97040.53;5124533;27;20208;-71
2022/03/29 03:01:44;;;;;;;14.87;10.73;;;;;;;14.92;33.75;97032.44;5119478;27;20196;-71
2022/03/29 03:04:13;;;;;;;21.23;10.30;;;;;;;14.94;33.24;97025.16;5133557;27;20822;-71
2022/03/29 03:06:40;;;;;;;15.40;10.30;;;;;;;14.96;33.73;97029.22;5129480;27;20184;-71
2022/03/29 03:09:06;;;;;;;16.30;10.43;;;;;;;15.00;34.14;97029.66;5110177;27;20450;-72
2022/03/29 03:11:31;;;;;;;15.70;11.40;;;;;;;15.02;34.19;97030.31;5103113;27;20455;-72
2022/03/29 03:13:57;;;;;;;14.60;10.70;;;;;;;14.95;34.26;97016.22;5096445;27;20221;-71
2022/03/29 03:16:23;;;;;;;16.93;10.40;;;;;;;14.90;34.26;97016.78;5110077;28;20242;-71
2022/03/29 03:18:48;;;;;;;24.50;11.27;;;;;;;14.91;34.48;97021.06;5099882;28;20170;-72
2022/03/29 03:21:13;;;;;;;15.77;10.50;;;;;;;14.91;34.69;97021.06;5093127;28;20169;-71
2022/03/29 03:23:39;;;;;;;15.90;10.70;;;;;;;14.86;34.65;97024.25;5091936;28;20186;-73
2022/03/29 03:26:04;;;;;;;18.23;10.83;;;;;;;14.81;34.88;97016.06;5109831;28;20272;-71
2022/03/29 03:28:30;;;;;;;16.07;10.00;;;;;;;14.82;34.80;97016.88;5093926;27;20571;-72
2022/03/29 03:30:55;;;;;;;16.97;9.80;;;;;;;14.80;34.89;97009.16;5092787;28;20268;-71
2022/03/29 03:33:21;;;;;;;24.37;10.30;;;;;;;14.79;34.44;97011.97;5092188;28;20193;-71
2022/03/29 03:35:46;;;;;;;19.10;10.47;;;;;;;14.80;33.05;97003.88;5107566;28;20691;-72
2022/03/29 03:38:12;;;;;;;19.20;10.37;;;;;;;14.82;33.41;97001.03;5094231;28;20254;-73
2022/03/29 03:40:37;;;;;;;15.73;10.90;;;;;;;14.78;34.20;97003.25;5105392;27;20191;-71
2022/03/29 03:43:03;;;;;;;16.70;10.37;;;;;;;14.71;34.75;96995.25;5111373;27;20208;-71
2022/03/29 03:45:29;;;;;;;13.73;9.83;;;;;;;14.68;35.28;96992.16;5112044;28;20178;-71
2022/03/29 03:47:55;;;;;;;17.20;10.90;;;;;;;14.65;35.45;96982.78;5126126;27;20177;-71
2022/03/29 03:50:20;;;;;;;18.13;9.63;;;;;;;14.72;34.84;96990.81;5114132;27;20587;-71
2022/03/29 03:52:46;;;;;;;24.20;10.30;;;;;;;14.72;35.16;96986.31;5112222;28;20520;-71
2022/03/29 03:55:11;;;;;;;15.30;10.80;;;;;;;14.65;35.21;96979.31;5111587;27;20274;-72
2022/03/29 03:57:37;;;;;;;15.53;10.60;;;;;;;14.62;35.17;96985.78;5111600;28;20180;-71
2022/03/29 04:00:04;;;;;;;14.90;10.20;;;;;;;14.64;35.68;96982.94;5108729;28;20189;-70
2022/03/29 04:02:30;;;;;;;32.17;10.77;;;;;;;14.64;35.25;96988.22;5110917;28;20196;-70
2022/03/29 04:04:55;;;;;;;13.97;10.63;;;;;;;14.59;35.60;96988.75;5120292;27;20470;-70
2022/03/29 04:07:21;;;;;;;18.27;10.77;;;;;;;14.47;36.20;96988.41;5111326;28;20173;-69
2022/03/29 04:09:46;;;;;;;16.43;11.13;;;;;;;14.40;36.17;96980.41;5120236;27;20606;-71
2022/03/29 04:12:12;;;;;;;15.73;11.17;;;;;;;14.36;36.24;96988.88;5111409;27;20657;-71
2022/03/29 04:14:37;;;;;;;16.50;11.17;;;;;;;14.19;36.05;96975.88;5111219;28;20200;-72
2022/03/29 04:17:06;;;;;;;30.17;14.10;;;;;;;14.17;35.85;96988.41;5095518;28;20205;-72
2022/03/29 04:19:32;;;;;;;29.57;15.60;;;;;;;14.07;36.00;96991.28;5111873;27;20266;-71
2022/03/29 04:21:57;;;;;;;23.90;14.80;;;;;;;14.09;35.80;96986.66;5117169;27;20806;-71
2022/03/29 04:24:22;;;;;;;18.53;12.60;;;;;;;14.16;35.86;96975.41;5111165;28;20197;-69
2022/03/29 04:26:48;;;;;;;18.93;12.30;;;;;;;14.16;35.52;96975.41;5111279;28;20800;-71
2022/03/29 04:29:14;;;;;;;21.30;11.97;;;;;;;14.10;35.78;96974.31;5119577;27;20176;-71
2022/03/29 04:31:39;;;;;;;20.50;12.17;;;;;;;14.06;36.02;96987.00;5119907;27;20210;-72
2022/03/29 04:34:05;;;;;;;22.50;12.93;;;;;;;14.06;36.17;96986.22;5111480;28;20207;-71
2022/03/29 04:36:31;;;;;;;20.17;12.80;;;;;;;14.06;36.21;96980.94;5110595;28;20566;-71
2022/03/29 04:38:57;;;;;;;23.53;13.40;;;;;;;14.08;36.48;96971.84;5118935;27;20208;-71
2022/03/29 04:41:23;;;;;;;17.93;11.80;;;;;;;14.02;36.34;96984.91;5110044;28;20614;-71
2022/03/29 04:43:49;;;;;;;20.33;12.00;;;;;;;13.93;36.78;96979.75;5097098;28;20448;-70
2022/03/29 04:46:14;;;;;;;21.07;11.90;;;;;;;13.93;36.77;96971.84;5107716;28;20494;-71
2022/03/29 04:48:40;;;;;;;20.07;11.67;;;;;;;13.93;36.64;96968.38;5119269;27;20222;-71
2022/03/29 04:51:06;;;;;;;17.50;11.60;;;;;;;13.82;36.94;96975.72;5111156;28;20272;-71
2022/03/29 04:53:32;;;;;;;15.93;11.60;;;;;;;13.80;36.93;96974.25;5110857;28;20242;-71
2022/03/29 04:55:57;;;;;;;18.60;11.70;;;;;;;13.83;36.62;96980.00;5110944;28;20443;-71
2022/03/29 04:58:24;;;;;;;15.20;10.80;;;;;;;13.82;36.67;96970.44;5095045;28;20193;-71
2022/03/29 05:00:49;;;;;;;16.43;11.43;;;;;;;13.83;36.55;96971.28;5096271;28;20205;-71
2022/03/29 05:03:15;;;;;;;21.47;12.67;;;;;;;13.78;36.81;96970.97;5107527;28;20988;-70
2022/03/29 05:05:40;;;;;;;23.97;13.27;;;;;;;13.76;37.09;96971.16;5093916;28;20676;-71
2022/03/29 05:08:07;;;;;;;22.03;14.07;;;;;;;13.67;37.43;96973.06;5114857;28;20259;-71
2022/03/29 05:10:32;;;;;;;25.07;14.30;;;;;;;13.69;37.68;96970.22;5093484;28;20664;-71
2022/03/29 05:12:58;;;;;;;21.33;14.47;;;;;;;13.72;37.65;96971.72;5109122;28;20465;-72
2022/03/29 05:15:23;;;;;;;19.53;13.33;;;;;;;13.67;37.65;96961.72;5091913;28;20700;-70
2022/03/29 05:17:49;;;;;;;21.17;12.50;;;;;;;13.70;37.51;96963.16;5110399;28;20191;-71
2022/03/29 05:20:16;;;;;;;21.43;12.50;;;;;;;13.77;37.69;96967.53;5110557;28;20193;-71
2022/03/29 05:22:42;;;;;;;27.43;12.03;;;;;;;13.73;37.49;96957.56;5102782;28;20230;-71
2022/03/29 05:25:07;;;;;;;18.07;12.10;;;;;;;13.76;37.35;96965.06;5108557;28;20911;-71
2022/03/29 05:27:33;;;;;;;27.60;14.30;;;;;;;13.72;38.12;96969.88;5111131;28;20423;-71
2022/03/29 05:29:59;;;;;;;21.30;13.03;;;;;;;13.70;37.81;96971.06;5110888;28;20642;-71
2022/03/29 05:32:24;;;;;;;22.33;13.20;;;;;;;13.70;38.11;96971.88;5111033;28;20185;-71
2022/03/29 05:34:50;;;;;;;19.10;12.30;;;;;;;13.72;38.11;96966.44;5109717;28;20287;-71
2022/03/29 05:37:15;;;;;;;23.63;12.80;;;;;;;13.71;38.50;96977.97;5110919;28;20296;-71
2022/03/29 05:39:43;;;;;;;23.30;12.43;;;;;;;13.70;38.25;96976.34;5110605;27;20560;-70
2022/03/29 05:42:09;;;;;;;27.73;12.43;;;;;;;13.53;38.38;96976.44;5111610;28;20189;-71
2022/03/29 05:44:35;;;;;;;23.30;13.27;;;;;;;13.47;38.47;96964.81;5092353;28;20466;-71
2022/03/29 05:49:44;;;;;;;31.97;12.90;;;;;;;13.50;38.59;96964.47;5110638;28;20169;-72
2022/03/29 05:52:10;;;;;;;17.67;11.70;;;;;;;13.57;38.36;96963.75;5113076;28;20790;-72
2022/03/29 05:54:35;;;;;;;20.93;12.20;;;;;;;13.59;38.33;96959.13;5095801;28;20224;-71
2022/03/29 05:57:02;;;;;;;21.00;12.97;;;;;;;13.65;38.23;96964.50;5114920;27;20236;-72
2022/03/29 05:59:27;;;;;;;21.23;12.27;;;;;;;13.64;38.32;96962.06;5114401;28;20181;-72
2022/03/29 06:01:53;;;;;;;19.73;12.20;;;;;;;13.62;38.62;96962.22;5120083;27;20921;-73
2022/03/29 06:04:22;;;;;;;25.73;12.13;;;;;;;13.71;38.54;96959.53;5117510;27;20205;-72
2022/03/29 06:06:49;;;;;;;16.67;11.70;;;;;;;13.80;38.43;96958.47;5114557;28;20174;-72
2022/03/29 06:09:14;;;;;;;23.37;12.80;;;;;;;13.91;37.83;96967.75;5096238;28;20420;-72
2022/03/29 06:11:40;;;;;;;24.93;13.07;;;;;;;13.91;38.20;96958.03;5116830;27;20433;-72
2022/03/29 06:14:05;;;;;;;19.53;12.87;;;;;;;14.02;38.32;96963.84;5115431;27;20227;-72
2022/03/29 06:16:31;;;;;;;21.37;12.60;;;;;;;14.09;38.74;96949.78;5114085;28;20683;-72
2022/03/29 06:18:56;;;;;;;23.67;13.30;;;;;;;14.12;39.13;96956.50;5114517;28;20188;-72
2022/03/29 06:21:24;;;;;;;21.40;12.87;;;;;;;14.12;39.27;96959.13;5123303;27;20602;-72
2022/03/29 06:23:49;;;;;;;28.43;12.67;;;;;;;14.11;39.33;96953.03;5107075;27;20229;-72
2022/03/29 06:26:14;;;;;;;26.50;13.23;;;;;;;14.11;38.95;96958.31;5110281;27;20507;-74
2022/03/29 06:28:40;;;;;;;26.73;13.90;;;;;;;14.06;38.20;96957.22;5122218;27;20184;-73
2022/03/29 06:31:07;;;;;;;33.40;12.57;;;;;;;14.18;39.33;96958.41;5113688;28;20627;-70
2022/03/29 06:33:33;;;;;;;21.97;13.30;;;;;;;14.18;37.34;96966.31;5114140;28;20453;-72
2022/03/29 06:35:58;;;;;;;28.80;13.63;;;;;;;14.13;37.55;96956.31;5113287;28;20538;-73
2022/03/29 06:38:24;;;;;;;19.70;13.60;;;;;;;14.26;37.72;96960.16;5122559;27;20197;-72
2022/03/29 06:40:50;;;;;;;24.20;13.47;;;;;;;14.25;37.85;96958.50;5113898;28;20268;-72
2022/03/29 06:43:16;;;;;;;21.73;13.63;;;;;;;14.22;38.04;96959.69;5095210;28;20677;-72
2022/03/29 06:45:41;;;;;;;21.80;13.43;;;;;;;14.30;38.14;96969.34;5113729;28;20418;-73
2022/03/29 06:48:07;;;;;;;30.73;13.60;;;;;;;14.35;38.55;96966.16;5113326;28;20188;-73
2022/03/29 06:50:35;;;;;;;36.87;14.23;;;;;;;14.48;38.77;96970.78;5113174;28;20188;-73
2022/03/29 06:53:01;;;;;;;32.00;13.70;;;;;;;14.58;38.04;96980.03;5098129;28;20501;-73
2022/03/29 06:55:27;;;;;;;27.30;13.70;;;;;;;14.63;37.75;96970.75;5105136;27;20545;-72
2022/03/29 06:57:53;;;;;;;23.73;13.00;;;;;;;14.66;37.62;96968.59;5119247;27;20982;-73
2022/03/29 07:00:20;;;;;;;23.90;13.80;;;;;;;14.74;37.17;96975.63;5113549;27;20564;-72
2022/03/29 07:02:46;;;;;;;34.63;12.97;;;;;;;14.74;37.26;96972.97;5119870;27;20761;-71
2022/03/29 07:05:11;;;;;;;23.77;12.90;;;;;;;14.85;37.88;96980.41;5095919;27;20553;-74
2022/03/29 07:07:37;;;;;;;24.33;13.00;;;;;;;15.00;37.94;96980.38;5112235;28;20239;-72
2022/03/29 07:12:48;;;;;;;31.27;13.53;;;;;;;15.23;38.29;96970.66;5105819;28;20202;-72
2022/03/29 07:15:14;;;;;;;30.00;14.00;;;;;;;15.29;37.85;96965.44;5100063;28;20427;-71
2022/03/29 07:17:39;;;;;;;26.53;14.07;;;;;;;15.31;38.37;96967.88;5094047;28;20907;-72
2022/03/29 07:20:06;;;;;;;35.70;13.73;;;;;;;15.28;39.02;96961.19;5112429;28;20499;-71
2022/03/29 07:22:31;;;;;;;25.43;13.97;;;;;;;15.34;39.05;96965.69;5121579;27;20181;-73
2022/03/29 07:24:57;;;;;;;41.63;13.63;;;;;;;15.48;39.05;96957.88;5113277;28;20437;-74
2022/03/29 07:27:22;;;;;;;33.87;14.30;;;;;;;15.43;38.79;96965.59;5121275;27;20290;-73
2022/03/29 07:29:49;;;;;;;28.83;14.17;;;;;;;15.50;38.15;96958.53;5112751;28;20169;-73
2022/03/29 07:32:15;;;;;;;23.40;13.93;;;;;;;15.47;37.34;96961.53;5094629;28;20184;-73
2022/03/29 07:34:40;;;;;;;34.43;14.90;;;;;;;15.45;37.03;96955.63;5120917;27;20435;-73
2022/03/29 07:37:06;;;;;;;23.17;14.40;;;;;;;15.60;36.93;96952.94;5112012;28;20200;-73
2022/03/29 07:39:31;;;;;;;28.27;13.70;;;;;;;15.76;36.79;96960.56;5111752;28;20221;-73
2022/03/29 07:41:57;;;;;;;31.57;16.07;;;;;;;15.90;36.45;96960.69;5125715;27;20217;-72
2022/03/29 07:44:22;;;;;;;31.63;14.70;;;;;;;15.95;36.55;96955.66;5114657;27;20197;-73
2022/03/29 07:46:48;;;;;;;23.47;13.80;;;;;;;16.03;35.53;96944.94;5115225;27;20253;-74
2022/03/29 07:49:13;;;;;;;26.90;13.90;;;;;;;16.06;35.56;96955.13;5082468;28;20189;-73
2022/03/29 07:51:39;;;;;;;26.00;14.93;;;;;;;16.16;35.01;96949.50;5060226;28;20177;-73
2022/03/29 07:54:05;;;;;;;21.40;14.33;;;;;;;16.25;35.65;96948.31;5110182;27;20201;-73
2022/03/29 07:56:31;;;;;;;22.23;14.87;;;;;;;16.40;34.77;96945.56;5123026;27;20196;-73
2022/03/29 07:58:56;;;;;;;29.17;14.20;;;;;;;16.51;35.05;96946.84;5111127;28;20430;-74
2022/03/29 08:01:22;;;;;;;24.23;14.23;;;;;;;16.57;34.66;96946.03;5111662;28;20183;-73
2022/03/29 08:03:48;;;;;;;26.10;14.17;;;;;;;16.65;34.40;96947.69;5112530;28;20197;-74
2022/03/29 08:06:13;;;;;;;25.73;14.20;;;;;;;16.68;33.90;96949.94;5114843;27;20180;-74
2022/03/29 08:08:40;;;;;;;19.93;13.50;;;;;;;16.85;33.81;96941.69;5120492;27;20199;-73
2022/03/29 08:11:08;;;;;;;21.77;14.77;;;;;;;17.03;34.06;96944.59;5078681;28;20174;-74
2022/03/29 08:13:34;;;;;;;30.67;14.50;;;;;;;17.29;34.23;96944.88;5111032;28;20435;-74
2022/03/29 08:16:01;;;;;;;25.03;13.90;;;;;;;17.50;34.07;96938.56;5112391;28;20504;-74
2022/03/29 08:18:28;;;;;;;38.13;14.00;;;;;;;17.68;33.51;96945.09;5110909;27;20530;-73
2022/03/29 08:20:53;;;;;;;24.73;14.63;;;;;;;17.83;32.91;96945.69;5113480;28;20803;-73
2022/03/29 08:23:19;;;;;;;23.77;13.37;;;;;;;17.92;33.05;96947.09;5113573;28;20438;-72
2022/03/29 08:25:45;;;;;;;39.60;14.90;;;;;;;18.01;32.47;96955.69;5114408;27;20533;-72
2022/03/29 08:28:11;;;;;;;21.07;13.10;;;;;;;18.14;32.68;96956.69;5114044;28;20181;-74
2022/03/29 08:30:36;;;;;;;24.77;13.93;;;;;;;18.26;32.53;96950.56;5122337;27;20181;-73
2022/03/29 08:33:02;;;;;;;32.20;15.50;;;;;;;18.29;32.32;96943.19;5097895;28;20491;-73
2022/03/29 08:35:31;;;;;;;29.70;14.53;;;;;;;18.22;32.00;96941.38;5112094;28;20582;-73
2022/03/29 08:37:57;;;;;;;22.50;15.20;;;;;;;18.25;32.40;96940.97;5113161;28;20427;-74
2022/03/29 08:40:26;;;;;;;29.60;14.80;;;;;;;18.19;32.41;96947.09;5096675;28;20411;-72
2022/03/29 08:42:54;;;;;;;29.27;16.00;;;;;;;18.14;32.03;96941.63;5111274;28;20544;-73
2022/03/29 08:45:25;;;;;;;27.57;14.60;;;;;;;18.17;31.77;96943.84;5093168;28;20420;-72
2022/03/29 08:47:53;;;;;;;31.00;14.70;;;;;;;18.11;32.29;96944.69;5111345;28;20423;-73
2022/03/29 08:50:18;;;;;;;26.43;15.33;;;;;;;18.19;32.03;96941.81;5111242;28;20763;-73
2022/03/29 08:52:44;;;;;;;26.20;14.70;;;;;;;18.28;32.37;96934.44;5118641;28;20417;-72
2022/03/29 08:55:10;;;;;;;18.40;14.37;;;;;;;18.37;32.65;96938.50;5111419;28;20180;-72
2022/03/29 08:57:37;;;;;;;29.63;14.17;;;;;;;18.48;32.40;96934.38;5110935;28;20858;-72
2022/03/29 09:00:04;;;;;;;22.23;14.60;;;;;;;18.52;31.66;96942.72;5111763;28;20426;-73
2022/03/29 09:02:35;;;;;;;25.60;15.07;;;;;;;18.68;31.57;96941.44;5112572;28;20508;-73
2022/03/29 09:05:15;;;;;;;22.70;14.00;;;;;;;18.87;31.23;96937.06;5111432;28;20526;-72
2022/03/29 09:07:50;;;;;;;23.17;14.27;;;;;;;19.06;30.87;96927.41;5105301;27;20415;-73
2022/03/29 09:10:17;;;;;;;22.70;14.40;;;;;;;19.25;30.73;96938.13;5111961;28;20427;-73
2022/03/29 09:12:43;;;;;;;23.73;13.70;;;;;;;19.42;30.57;96933.09;5112643;28;20509;-72
2022/03/29 09:15:09;;;;;;;29.93;13.37;;;;;;;19.59;30.61;96928.91;5112409;28;20407;-74
2022/03/29 09:17:38;;;;;;;20.37;13.43;;;;;;;19.65;29.53;96927.22;5112246;28;20547;-74
2022/03/29 09:20:21;;;;;;;25.00;14.40;;;;;;;19.80;30.08;96927.66;5111168;28;21083;-74
2022/03/29 09:22:53;;;;;;;22.33;13.70;;;;;;;19.98;30.06;96927.97;5103887;28;20479;-74
2022/03/29 09:25:20;;;;;;;25.93;13.97;;;;;;;20.14;29.70;96923.94;5111080;28;20835;-74
2022/03/29 09:28:03;;;;;;;21.67;13.43;;;;;;;20.24;28.63;96922.38;5115194;28;20446;-74
2022/03/29 09:30:38;;;;;;;25.50;12.63;;;;;;;20.26;28.18;96916.84;5114710;28;21043;-73
2022/03/29 09:33:31;;;;;;;23.67;13.50;;;;;;;20.56;28.72;96921.41;5114274;28;20529;-73
2022/03/29 09:36:00;;;;;;;27.60;12.93;;;;;;;20.68;27.32;96916.94;5106280;27;20485;-75
2022/03/29 09:38:30;;;;;;;19.43;12.30;;;;;;;20.84;27.27;96909.41;5114674;28;20445;-74
2022/03/29 09:40:56;;;;;;;24.00;12.47;;;;;;;20.96;27.30;96904.94;5114603;28;20410;-74
2022/03/29 09:43:24;;;;;;;32.43;14.97;;;;;;;21.13;27.57;96910.44;5114000;28;20457;-74
2022/03/29 09:45:52;;;;;;;26.70;14.90;;;;;;;21.09;26.95;96908.47;5114989;28;20415;-74
2022/03/29 09:48:30;;;;;;;28.97;15.57;;;;;;;20.99;27.17;96896.50;5123151;27;20501;-73
2022/03/29 09:51:08;;;;;;;24.30;14.23;;;;;;;21.09;26.88;96895.13;5114406;28;20997;-73
2022/03/29 09:53:54;;;;;;;19.77;12.70;;;;;;;21.16;26.49;96898.53;5114117;28;20514;-72
2022/03/29 09:56:28;;;;;;;29.23;13.53;;;;;;;21.23;26.23;96893.91;5122991;27;20465;-74
2022/03/29 09:59:07;;;;;;;29.30;14.27;;;;;;;21.11;25.95;96885.06;5114382;28;20480;-75
2022/03/29 10:01:34;;;;;;;25.57;12.97;;;;;;;21.25;26.20;96883.84;5113948;28;20942;-72
2022/03/29 10:04:01;;;;;;;21.53;13.40;;;;;;;21.41;26.29;96889.56;5098519;28;20501;-72
2022/03/29 10:06:26;;;;;;;19.50;13.20;;;;;;;21.60;26.55;96872.44;5122875;27;20414;-74
2022/03/29 10:11:43;;;;;;;21.20;14.10;;;;;;;21.98;25.93;96856.19;5108887;27;20173;-74
2022/03/29 10:14:13;;;;;;;23.33;13.13;;;;;;;22.10;25.84;96854.31;5096970;28;20505;-74
2022/03/29 10:16:39;;;;;;;35.67;13.60;;;;;;;22.18;25.87;96856.59;5113492;28;20442;-74
2022/03/29 10:19:06;;;;;;;22.53;14.30;;;;;;;21.89;25.19;96848.56;5097100;28;20423;-74
2022/03/29 10:21:32;;;;;;;23.87;14.70;;;;;;;21.92;25.24;96848.09;5112968;28;20200;-73
2022/03/29 10:23:59;;;;;;;24.47;14.00;;;;;;;21.88;25.76;96849.59;5098380;28;20527;-73
2022/03/29 10:26:25;;;;;;;32.47;14.30;;;;;;;21.87;25.53;96855.97;5111560;27;20255;-75
2022/03/29 10:28:51;;;;;;;23.10;14.10;;;;;;;21.85;25.29;96842.06;5097625;28;20495;-72
2022/03/29 10:31:33;;;;;;;23.27;13.30;;;;;;;21.84;25.51;96837.75;5091599;28;20596;-74
2022/03/29 10:34:17;;;;;;;20.47;13.10;;;;;;;22.02;25.60;96836.00;5113483;28;20401;-74
2022/03/29 10:36:58;;;;;;;24.50;13.60;;;;;;;22.10;25.69;96822.28;5105919;28;20546;-73
2022/03/29 10:39:45;;;;;;;25.20;13.80;;;;;;;22.17;25.13;96822.16;5112865;28;20477;-74
2022/03/29 10:42:24;;;;;;;23.50;12.83;;;;;;;22.18;24.82;96808.56;5113815;28;20422;-74
2022/03/29 10:45:09;;;;;;;23.83;13.87;;;;;;;22.17;24.49;96796.31;5106425;28;20438;-74
2022/03/29 10:47:34;;;;;;;21.87;13.20;;;;;;;22.19;24.78;96794.19;5113607;28;20419;-74
2022/03/29 10:50:01;;;;;;;31.17;14.37;;;;;;;22.17;24.78;96780.28;5119419;28;20770;-73
2022/03/29 10:52:28;;;;;;;27.87;13.93;;;;;;;22.13;24.61;96773.81;5113480;27;20185;-73
2022/03/29 10:55:14;;;;;;;23.07;13.40;;;;;;;22.05;24.91;96768.84;5113643;28;20446;-74
2022/03/29 10:57:39;;;;;;;39.27;13.37;;;;;;;22.11;24.71;96769.75;5113593;28;20412;-73
2022/03/29 11:00:10;;;;;;;28.40;14.20;;;;;;;22.06;24.50;96762.44;5113006;28;20419;-74
2022/03/29 11:02:35;;;;;;;26.20;13.40;;;;;;;22.12;24.30;96761.50;5113252;28;20176;-75
2022/03/29 11:05:05;;;;;;;21.40;13.50;;;;;;;22.20;24.79;96765.66;5097475;28;20533;-75
2022/03/29 11:07:33;;;;;;;23.30;12.77;;;;;;;22.21;24.50;96773.41;5096307;28;20181;-74
2022/03/29 11:10:12;;;;;;;21.97;13.40;;;;;;;22.25;24.60;96771.91;5112633;27;20424;-72
2022/03/29 11:12:44;;;;;;;29.53;13.37;;;;;;;22.36;24.29;96774.75;5095308;28;20451;-74
2022/03/29 11:15:25;;;;;;;24.03;13.70;;;;;;;22.44;24.35;96771.72;5113256;28;20426;-74
2022/03/29 11:17:55;;;;;;;22.30;14.17;;;;;;;22.47;24.21;96760.56;5114303;27;20911;-73
2022/03/29 11:20:38;;;;;;;22.43;13.50;;;;;;;22.48;23.74;96764.06;5112949;28;20453;-74
2022/03/29 11:23:06;;;;;;;21.87;13.07;;;;;;;22.57;24.60;96767.97;5120290;27;21000;-74
2022/03/29 11:25:43;;;;;;;24.17;14.10;;;;;;;22.65;24.43;96766.75;5099898;27;20506;-74
2022/03/29 11:28:11;;;;;;;20.73;13.40;;;;;;;22.67;24.26;96757.47;5112857;28;20448;-75